Boeing Field King County International Airport
KBFI : now visible

Airfield :











YOU CAN JOIN US ON...

 
LOGIN :

Register | Disclaimer

   EN    FR    IT 

 









Legend :    VFR   Marginal VFR   IFR   Intensive IFR   Very Intensive IFR
Visi :
Ceiling :
>= 8 km
>= 3000ft
5 to 8 km
1000 to 3000 ft
1500m to 5 km
500 to 1000 ft
800 to 1500m
200 to 500 ft
< 800m
< 200 ft
Symbols :   Thunderstorms  Fog  Heavy snow  Heavy precipitations  Wind > 20 kt






- Airport Elevation : 21 ft
- IATA code : BFI


KBFI - Boeing Field King County International

CURRENT METAR :
  • 070553Z 20005KT 10SM BKN050 16/09 A3002 RMK AO2 SLP167 T01610094 10217 20161 51010

EXPIRED METARs :
  • 070453Z 23006KT 10SM BKN049 17/09 A3002 RMK AO2 SLP166 T01720094
  • 070353Z 24011G16KT 10SM BKN048 18/09 A3001 RMK AO2 SLP162 T01780094

TAF KBFI
Valid from the 07 at 06:00 until the 08 at 06:00 UTC


070535Z 0706/0806 22008KT P6SM OVC045
FM071400 18008KT P6SM VCSH OVC030
FM072100 18008KT P6SM VCSH BKN040 BKN060
KZSE FIR / North America



MET'MAP, your aeronautical weather chart ! - Copyright ORBIFLY December 2007 - Disclaimer

ORBIFLY MET'MAP TEAM :

Programming & Development : Alexandra Zaïnal
Concept & original design : Baudouin d'Aumeries
Assistance for programming : Marc-Olivier Méhu
Technical & hardware support : Manuel Goepfert

Contact : metmap@orbifly.com




SOURCES & CREDITS :

   NOAA       Earth
Advisory